This is the latest recevied weather packets stored in our database for station/object SQ7KHZ-10. If no packets are shown the sender has not sent any weather packets the latest 10 day(s).
| Time | Temp. | Humidity | Pressure | Rain* | Wind** | Luminosity | Snow |
|---|---|---|---|---|---|---|---|
| 1778175157 | 12.78° C | 99% | 1012.5 hPa | 0.76 mm | - | - | - |
| 1778173956 | 13.33° C | 99% | 1012.2 hPa | 1.02 mm | - | - | - |
| 1778172730 | 13.89° C | 99% | 1012.2 hPa | 0.25 mm | - | - | - |
| 1778171505 | 13.89° C | 99% | 1012 hPa | 0.25 mm | - | - | - |
| 1778170294 | 13.89° C | 99% | 1011.8 hPa | 0 mm | - | - | - |
| 1778169057 | 13.89° C | 99% | 1011.6 hPa | 0.25 mm | - | - | - |
| 1778167845 | 14.44° C | 99% | 1011.4 hPa | 0.76 mm | - | - | - |
| 1778166621 | 15° C | 97% | 1011.4 hPa | 0.76 mm | - | - | - |
| 1778165409 | 16.11° C | 88% | 1011.3 hPa | 0.25 mm | - | - | - |
| 1778164208 | 17.22° C | 79% | 1011.4 hPa | 0 mm | - | - | - |
| 1778162966 | 17.78° C | 77% | 1011.3 hPa | 0 mm | - | - | - |
| 1778161764 | 18.33° C | 78% | 1011.3 hPa | 0 mm | - | - | - |
| 1778160550 | 18.33° C | 74% | 1011.3 hPa | 0 mm | - | - | - |
| 1778159346 | 17.78° C | 79% | 1011.4 hPa | 0 mm | - | - | - |
| 1778158119 | 17.22° C | 81% | 1011.3 hPa | 0 mm | - | - | - |
| 1778156917 | 17.22° C | 82% | 1011.4 hPa | 0 mm | - | - | - |
| 1778155704 | 16.67° C | 83% | 1011.6 hPa | 0 mm | - | - | - |
| 1778154466 | 15.56° C | 86% | 1011.7 hPa | 0 mm | - | - | - |
| 1778153261 | 15.56° C | 87% | 1011.6 hPa | 0 mm | - | - | - |
| 1778152055 | 15° C | 89% | 1011.7 hPa | 0 mm | - | - | - |
| 1778150850 | 14.44° C | 91% | 1011.4 hPa | 0 mm | - | - | - |
| 1778149634 | 14.44° C | 93% | 1011.2 hPa | 0 mm | - | - | - |
| 1778148429 | 14.44° C | 92% | 1010.9 hPa | 0 mm | - | - | - |
| 1778147224 | 14.44° C | 91% | 1010.7 hPa | 0 mm | - | - | - |
| 1778146021 | 13.89° C | 91% | 1010.4 hPa | 0 mm | - | - | - |
* Rain latest hour (hover to see other rain measurements)
** Current wind speed in m/s (hover to see current wind gust speed)